Cadillac, Michigan
Current Conditions -  °F | °C
As of 7:54 AM on Monday 20 Oct 2014 (Local Time) from KCAD Reporting Station
Overcast Overcast  
Wind Chill:   Ceiling: 600
Heat Index:   Visibility: 10mi
Dew Point:   Wind: 9mph
Humidity: 99%   Direction: 210°SSW
Pressure: 29.74"   Gusts: NA
Location:  44.26°N, 85.4°W
Report Text: KCAD 201154Z AUTO 21008KT 10SM OVC006 08/08 A2974 RMK AO2 T00840082
Loading
Personal Weather Stations






























Interactive Weather Map New forecast layout! Learn more

10-Day Weather Forecast

Advertisements
Track Severe Weather on mobile